createdAt,value
2023-05-10T00:00:43.396Z,12.90
2023-05-10T00:03:10.351Z,12.80
2023-05-10T00:05:37.226Z,12.80
2023-05-10T00:08:04.556Z,12.90
2023-05-10T00:10:31.514Z,12.90
2023-05-10T00:12:58.630Z,12.80
2023-05-10T00:15:25.769Z,12.80
2023-05-10T00:17:52.978Z,12.80
2023-05-10T00:20:20.162Z,12.80
2023-05-10T00:22:46.931Z,12.80
2023-05-10T00:25:14.035Z,12.80
2023-05-10T00:27:40.946Z,12.90
2023-05-10T00:30:08.483Z,12.90
2023-05-10T00:32:35.697Z,13.00
2023-05-10T00:35:02.684Z,13.00
2023-05-10T00:37:29.800Z,12.90
2023-05-10T00:39:56.683Z,12.90
2023-05-10T00:42:23.600Z,13.00
2023-05-10T00:44:50.786Z,12.90
2023-05-10T00:47:18.644Z,12.80
2023-05-10T00:49:46.684Z,12.90
2023-05-10T00:52:14.070Z,12.90
2023-05-10T00:54:40.942Z,12.90
2023-05-10T00:57:08.110Z,12.90
2023-05-10T00:59:35.521Z,12.90
2023-05-10T01:02:02.912Z,12.90
2023-05-10T01:04:30.221Z,12.80
2023-05-10T01:07:00.661Z,12.80
2023-05-10T01:09:27.553Z,12.80
2023-05-10T01:11:55.283Z,12.80
2023-05-10T01:14:22.869Z,13.00
2023-05-10T01:16:51.261Z,12.90
2023-05-10T01:19:27.010Z,13.00
2023-05-10T01:22:05.905Z,12.90
2023-05-10T01:24:38.765Z,12.80
2023-05-10T01:27:42.550Z,12.70
2023-05-10T01:30:28.503Z,12.70
2023-05-10T01:33:04.532Z,12.70
2023-05-10T01:35:59.477Z,12.70
2023-05-10T01:38:53.008Z,12.70
2023-05-10T01:41:23.184Z,12.70
2023-05-10T01:43:56.628Z,12.70
2023-05-10T01:46:32.772Z,12.80
2023-05-10T01:49:02.931Z,12.70
2023-05-10T01:51:37.621Z,12.60
2023-05-10T01:54:06.482Z,12.60
2023-05-10T01:56:35.936Z,12.60
2023-05-10T01:59:08.055Z,12.60
2023-05-10T02:01:36.825Z,12.60
2023-05-10T02:04:06.475Z,12.70
2023-05-10T02:06:34.237Z,12.70
2023-05-10T02:09:02.699Z,12.70
2023-05-10T02:11:31.628Z,12.60
2023-05-10T02:14:00.404Z,12.70
2023-05-10T02:16:28.575Z,12.60
2023-05-10T02:18:57.257Z,12.60
2023-05-10T02:21:25.022Z,12.60
2023-05-10T02:23:53.614Z,12.60
2023-05-10T02:26:24.545Z,12.70
2023-05-10T02:28:52.480Z,12.60
2023-05-10T02:31:20.597Z,12.60
2023-05-10T02:33:48.038Z,12.50
2023-05-10T02:36:16.202Z,12.50
2023-05-10T02:38:44.369Z,12.50
2023-05-10T02:41:12.401Z,12.50
2023-05-10T02:43:40.995Z,12.50
2023-05-10T02:46:08.730Z,12.60
2023-05-10T02:48:35.693Z,12.50
2023-05-10T02:51:08.081Z,12.50
2023-05-10T02:53:37.456Z,12.60
2023-05-10T02:56:12.847Z,12.60
2023-05-10T02:58:40.098Z,12.60
2023-05-10T03:01:09.136Z,12.50
2023-05-10T03:03:36.226Z,12.50
2023-05-10T03:06:03.051Z,12.50
2023-05-10T03:08:30.560Z,12.50
2023-05-10T03:11:16.577Z,12.60
2023-05-10T03:14:01.720Z,12.50
2023-05-10T03:16:34.602Z,12.60
2023-05-10T03:19:04.753Z,12.70
2023-05-10T03:21:33.578Z,12.70
2023-05-10T03:24:09.184Z,12.60
2023-05-10T03:26:38.382Z,12.70
2023-05-10T03:29:07.459Z,12.80
2023-05-10T03:31:34.472Z,12.70
2023-05-10T03:34:01.347Z,12.60
2023-05-10T03:36:28.251Z,12.70
2023-05-10T03:38:55.169Z,12.70
2023-05-10T03:41:22.374Z,12.90
2023-05-10T03:43:49.572Z,12.80
2023-05-10T03:46:16.695Z,12.70
2023-05-10T03:48:43.609Z,12.60
2023-05-10T03:51:10.475Z,12.70
2023-05-10T03:53:38.721Z,12.70
2023-05-10T03:56:05.536Z,12.80
2023-05-10T03:58:32.466Z,12.90
2023-05-10T04:00:59.545Z,12.80
2023-05-10T04:03:27.351Z,12.80
2023-05-10T04:06:02.526Z,12.80
2023-05-10T04:08:30.066Z,12.80
2023-05-10T04:11:10.069Z,12.90
2023-05-10T04:13:36.989Z,12.90
2023-05-10T04:16:04.112Z,13.00
2023-05-10T04:18:31.916Z,12.90
2023-05-10T04:20:58.814Z,12.90
2023-05-10T04:23:25.657Z,12.90
2023-05-10T04:25:52.778Z,13.00
2023-05-10T04:28:19.552Z,12.90
2023-05-10T04:30:47.088Z,12.90
2023-05-10T04:33:13.921Z,12.80
2023-05-10T04:35:41.087Z,12.90
2023-05-10T04:38:08.266Z,12.90
2023-05-10T04:40:35.666Z,12.80
2023-05-10T04:43:02.498Z,12.90
2023-05-10T04:45:29.334Z,13.00
2023-05-10T04:47:56.244Z,13.00
2023-05-10T04:50:23.423Z,13.10
2023-05-10T04:52:50.500Z,13.10
2023-05-10T04:55:17.540Z,13.20
2023-05-10T04:57:44.310Z,13.20
2023-05-10T05:00:11.762Z,13.20
2023-05-10T05:02:38.736Z,13.10
2023-05-10T05:05:06.361Z,13.10
2023-05-10T05:07:33.689Z,13.10
2023-05-10T05:10:00.758Z,13.00
2023-05-10T05:12:27.606Z,13.20
2023-05-10T05:14:54.408Z,13.20
2023-05-10T05:17:21.271Z,13.20
2023-05-10T05:19:48.154Z,13.10
2023-05-10T05:22:15.251Z,13.10
2023-05-10T05:24:42.161Z,13.10
2023-05-10T05:27:09.038Z,13.20
2023-05-10T05:29:36.261Z,13.30
2023-05-10T05:32:03.223Z,13.50
2023-05-10T05:34:30.487Z,13.50
2023-05-10T05:36:57.335Z,13.50
2023-05-10T05:39:24.541Z,13.50
2023-05-10T05:41:51.690Z,13.50
2023-05-10T05:44:18.456Z,13.70
2023-05-10T05:46:45.767Z,13.60
2023-05-10T05:49:13.342Z,13.70
2023-05-10T05:51:40.163Z,13.70
2023-05-10T05:54:07.536Z,13.70
2023-05-10T05:56:34.406Z,13.70
2023-05-10T05:59:01.524Z,14.00
2023-05-10T06:01:28.666Z,14.00
2023-05-10T06:03:55.849Z,13.90
2023-05-10T06:06:22.967Z,14.20
2023-05-10T06:08:50.217Z,14.10
2023-05-10T06:11:17.055Z,14.00
2023-05-10T06:13:44.462Z,13.90
2023-05-10T06:16:11.387Z,13.90
2023-05-10T06:18:38.571Z,14.10
2023-05-10T06:21:05.870Z,14.00
2023-05-10T06:23:32.929Z,14.10
2023-05-10T06:25:59.758Z,13.90
2023-05-10T06:28:26.620Z,13.90
2023-05-10T06:30:53.508Z,13.90
2023-05-10T06:33:20.602Z,13.80
2023-05-10T06:35:47.721Z,13.80
2023-05-10T06:38:14.617Z,13.90
2023-05-10T06:40:44.942Z,13.80
2023-05-10T06:43:12.058Z,13.70
2023-05-10T06:45:39.145Z,13.80
2023-05-10T06:48:06.234Z,13.80
2023-05-10T06:50:33.339Z,13.80
2023-05-10T06:53:01.301Z,13.80
2023-05-10T06:55:29.199Z,13.90
2023-05-10T06:57:56.155Z,13.90
2023-05-10T07:00:23.332Z,13.90
2023-05-10T07:02:50.635Z,13.90
2023-05-10T07:05:17.758Z,13.90
2023-05-10T07:07:44.711Z,13.90
2023-05-10T07:10:11.636Z,14.00
2023-05-10T07:12:39.295Z,13.80
2023-05-10T07:15:06.845Z,13.70
2023-05-10T07:17:34.849Z,13.80
2023-05-10T07:20:02.720Z,13.70
2023-05-10T07:22:29.613Z,13.60
2023-05-10T07:24:56.761Z,13.80
2023-05-10T07:27:23.682Z,13.80
2023-05-10T07:29:50.507Z,13.80
2023-05-10T07:32:17.776Z,13.80
2023-05-10T07:34:44.660Z,13.90
2023-05-10T07:37:11.825Z,14.00
2023-05-10T07:39:38.630Z,13.90
2023-05-10T07:42:05.910Z,13.80
2023-05-10T07:44:33.111Z,14.00
2023-05-10T07:46:59.917Z,14.10
2023-05-10T07:49:27.591Z,14.00
2023-05-10T07:51:54.362Z,14.00
2023-05-10T07:54:21.584Z,14.20
2023-05-10T07:56:48.713Z,14.10
2023-05-10T07:59:19.303Z,14.00
2023-05-10T08:01:46.547Z,14.10
2023-05-10T08:04:13.894Z,14.20
2023-05-10T08:06:41.364Z,14.30
2023-05-10T08:09:08.897Z,14.40
2023-05-10T08:11:36.239Z,14.20
2023-05-10T08:14:03.089Z,14.40
2023-05-10T08:16:30.363Z,14.50
2023-05-10T08:18:57.643Z,14.60
2023-05-10T08:21:25.293Z,14.70
2023-05-10T08:23:52.445Z,14.70
2023-05-10T08:26:19.473Z,14.90
2023-05-10T08:28:46.645Z,15.10
2023-05-10T08:31:13.613Z,15.30
2023-05-10T08:33:42.442Z,15.40
2023-05-10T08:36:11.623Z,15.40
2023-05-10T08:38:39.749Z,15.40
2023-05-10T08:41:07.934Z,15.10
2023-05-10T08:43:37.570Z,15.10
2023-05-10T08:46:08.122Z,15.10
2023-05-10T08:48:35.750Z,15.20
2023-05-10T08:51:04.871Z,15.00
2023-05-10T08:53:34.158Z,14.90
2023-05-10T08:56:04.714Z,14.80
2023-05-10T08:58:32.022Z,15.00
2023-05-10T09:01:00.143Z,14.70
2023-05-10T09:03:27.544Z,14.70
2023-05-10T09:05:54.959Z,14.80
2023-05-10T09:08:22.095Z,14.30
2023-05-10T09:10:50.896Z,14.20
2023-05-10T09:13:19.871Z,14.30
2023-05-10T09:15:47.092Z,14.20
2023-05-10T09:18:14.121Z,14.00
2023-05-10T09:20:41.659Z,14.20
2023-05-10T09:23:08.952Z,14.20
2023-05-10T09:25:36.249Z,14.30
2023-05-10T09:28:03.621Z,14.30
2023-05-10T09:30:31.940Z,14.10
2023-05-10T09:33:02.126Z,14.30
2023-05-10T09:35:31.665Z,14.40
2023-05-10T09:38:01.779Z,14.50
2023-05-10T09:40:30.793Z,14.80
2023-05-10T09:43:09.890Z,14.60
2023-05-10T09:45:38.981Z,14.90
2023-05-10T09:48:07.226Z,15.10
2023-05-10T09:50:35.186Z,15.00
2023-05-10T09:53:04.626Z,15.20
2023-05-10T09:55:41.645Z,15.20
2023-05-10T09:58:12.223Z,15.10
2023-05-10T10:00:41.165Z,15.30
2023-05-10T10:03:17.202Z,15.40
2023-05-10T10:05:45.192Z,15.40
2023-05-10T10:08:13.230Z,15.70
2023-05-10T10:10:53.668Z,15.70
2023-05-10T10:13:20.968Z,15.90
2023-05-10T10:15:52.199Z,15.70
2023-05-10T10:18:20.306Z,15.80
2023-05-10T10:20:47.419Z,16.10
2023-05-10T10:23:15.882Z,15.90
2023-05-10T10:25:45.516Z,15.80
2023-05-10T10:28:40.731Z,15.60
2023-05-10T10:31:27.225Z,15.70
2023-05-10T10:34:07.748Z,15.30
2023-05-10T10:36:55.605Z,14.90
2023-05-10T10:39:24.816Z,15.00
2023-05-10T10:41:57.052Z,15.00
2023-05-10T10:44:24.664Z,15.50
2023-05-10T10:47:26.196Z,16.00
2023-05-10T10:50:02.105Z,16.00
2023-05-10T10:52:31.250Z,16.10
2023-05-10T10:55:05.330Z,16.20
2023-05-10T10:57:44.924Z,15.90
2023-05-10T11:00:29.425Z,16.00
2023-05-10T11:03:09.303Z,16.10
2023-05-10T11:05:36.787Z,16.30
2023-05-10T11:08:31.417Z,16.60
2023-05-10T11:11:01.245Z,16.90
2023-05-10T11:13:34.052Z,16.60
2023-05-10T11:16:17.141Z,16.40
2023-05-10T11:19:03.537Z,17.00
2023-05-10T11:21:32.051Z,16.60
2023-05-10T11:24:00.619Z,16.50
2023-05-10T11:26:32.968Z,16.50
2023-05-10T11:29:02.064Z,16.80
2023-05-10T11:31:30.407Z,17.10
2023-05-10T11:33:59.767Z,17.40
2023-05-10T11:36:28.689Z,17.40
2023-05-10T11:38:56.973Z,18.10
2023-05-10T11:41:25.596Z,18.00
2023-05-10T11:43:54.577Z,18.20
2023-05-10T11:46:23.219Z,18.00
2023-05-10T11:48:52.036Z,18.20
2023-05-10T11:51:23.445Z,17.90
2023-05-10T11:53:52.092Z,17.40
2023-05-10T11:56:18.993Z,17.80
2023-05-10T11:58:48.054Z,17.90
2023-05-10T12:01:15.237Z,17.60
2023-05-10T12:03:42.322Z,17.50
2023-05-10T12:06:09.717Z,17.60
2023-05-10T12:08:36.469Z,17.40
2023-05-10T12:11:13.387Z,17.30
2023-05-10T12:13:41.631Z,16.40
2023-05-10T12:16:34.960Z,16.60
2023-05-10T12:19:01.904Z,16.30
2023-05-10T12:21:32.600Z,16.70
2023-05-10T12:24:09.149Z,16.60
2023-05-10T12:26:36.459Z,16.80
2023-05-10T12:29:20.076Z,16.70
2023-05-10T12:31:55.249Z,16.90
2023-05-10T12:34:32.428Z,17.10
2023-05-10T12:36:59.610Z,17.10
2023-05-10T12:39:26.971Z,16.60
2023-05-10T12:41:54.179Z,16.70
2023-05-10T12:44:21.035Z,16.70
2023-05-10T12:46:47.869Z,16.50
2023-05-10T12:49:14.675Z,16.50
2023-05-10T12:51:41.454Z,16.10
2023-05-10T12:54:08.330Z,16.00
2023-05-10T12:56:35.164Z,15.90
2023-05-10T12:59:02.304Z,16.00
2023-05-10T13:01:29.358Z,16.40
2023-05-10T13:03:56.153Z,16.60
2023-05-10T13:06:23.563Z,16.60
2023-05-10T13:08:50.456Z,16.50
2023-05-10T13:11:18.030Z,16.90
2023-05-10T13:13:45.676Z,17.00
2023-05-10T13:16:12.763Z,17.40
2023-05-10T13:18:39.763Z,17.50
2023-05-10T13:21:06.789Z,17.80
2023-05-10T13:23:33.616Z,17.80
2023-05-10T13:26:00.428Z,17.40
2023-05-10T13:28:27.443Z,18.00
2023-05-10T13:30:54.659Z,18.20
2023-05-10T13:33:21.746Z,17.50
2023-05-10T13:35:48.912Z,17.50
2023-05-10T13:38:15.798Z,17.30
2023-05-10T13:40:42.643Z,17.30
2023-05-10T13:43:09.447Z,17.40
2023-05-10T13:45:36.784Z,17.30
2023-05-10T13:48:03.966Z,17.00
2023-05-10T13:50:31.261Z,16.80
2023-05-10T13:52:58.233Z,16.50
2023-05-10T13:55:25.318Z,16.60
2023-05-10T13:57:52.151Z,16.50
2023-05-10T14:00:19.269Z,16.50
2023-05-10T14:02:46.129Z,16.50
2023-05-10T14:05:14.016Z,16.30
2023-05-10T14:07:41.306Z,16.30
2023-05-10T14:10:08.811Z,16.20
2023-05-10T14:12:35.677Z,16.10
2023-05-10T14:15:03.546Z,16.10
2023-05-10T14:17:30.380Z,16.00
2023-05-10T14:19:57.288Z,16.00
2023-05-10T14:22:24.544Z,16.00
2023-05-10T14:24:51.394Z,16.10
2023-05-10T14:27:18.213Z,16.10
2023-05-10T14:29:45.265Z,16.00
2023-05-10T14:32:12.541Z,16.10
2023-05-10T14:34:39.867Z,16.10
2023-05-10T14:37:07.077Z,16.10
2023-05-10T14:39:34.144Z,16.00
2023-05-10T14:42:00.983Z,15.90
2023-05-10T14:44:27.862Z,15.90
2023-05-10T14:46:54.677Z,15.70
2023-05-10T14:49:24.034Z,16.10
2023-05-10T14:51:51.376Z,16.30
2023-05-10T14:54:20.742Z,16.60
2023-05-10T14:56:48.354Z,16.70
2023-05-10T14:59:15.297Z,16.90
2023-05-10T15:01:43.468Z,16.80
2023-05-10T15:04:10.949Z,17.00
2023-05-10T15:06:38.235Z,17.10
2023-05-10T15:09:05.425Z,16.50
2023-05-10T15:11:32.248Z,16.50
2023-05-10T15:13:59.047Z,16.30
2023-05-10T15:16:26.200Z,16.10
2023-05-10T15:18:53.190Z,15.90
2023-05-10T15:21:19.988Z,15.80
2023-05-10T15:23:47.471Z,15.70
2023-05-10T15:26:14.346Z,15.50
2023-05-10T15:28:41.148Z,15.40
2023-05-10T15:31:08.307Z,15.40
2023-05-10T15:33:35.088Z,15.00
2023-05-10T15:36:01.873Z,14.90
2023-05-10T15:38:28.939Z,14.90
2023-05-10T15:40:58.913Z,14.80
2023-05-10T15:43:25.893Z,14.80
2023-05-10T15:45:52.708Z,14.90
2023-05-10T15:48:19.485Z,14.90
2023-05-10T15:50:46.289Z,15.00
2023-05-10T15:53:13.065Z,15.00
2023-05-10T15:55:40.163Z,15.20
2023-05-10T15:58:06.878Z,15.10
2023-05-10T16:00:33.808Z,15.20
2023-05-10T16:03:01.231Z,15.40
2023-05-10T16:05:31.960Z,15.70
2023-05-10T16:07:58.795Z,16.10
2023-05-10T16:10:25.676Z,16.30
2023-05-10T16:12:54.323Z,16.10
2023-05-10T16:15:24.304Z,15.60
2023-05-10T16:17:51.612Z,15.60
2023-05-10T16:20:18.518Z,15.40
2023-05-10T16:22:45.333Z,15.50
2023-05-10T16:25:13.693Z,15.30
2023-05-10T16:27:41.097Z,15.10
2023-05-10T16:30:08.626Z,15.50
2023-05-10T16:32:35.816Z,15.40
2023-05-10T16:35:03.036Z,15.50
2023-05-10T16:37:30.111Z,15.90
2023-05-10T16:39:57.014Z,15.60
2023-05-10T16:42:25.408Z,15.80
2023-05-10T16:44:52.995Z,16.10
2023-05-10T16:47:20.196Z,16.00
2023-05-10T16:49:47.094Z,16.00
2023-05-10T16:52:14.313Z,16.10
2023-05-10T16:54:41.483Z,16.00
2023-05-10T16:57:08.687Z,16.10
2023-05-10T16:59:35.574Z,15.90
2023-05-10T17:02:02.457Z,16.20
2023-05-10T17:04:29.335Z,16.00
2023-05-10T17:06:56.174Z,15.90
2023-05-10T17:09:23.585Z,15.70
2023-05-10T17:11:50.402Z,15.50
2023-05-10T17:14:17.200Z,15.60
2023-05-10T17:16:44.218Z,15.40
2023-05-10T17:19:11.323Z,15.40
2023-05-10T17:21:38.164Z,15.40
2023-05-10T17:24:05.443Z,15.40
2023-05-10T17:26:32.614Z,15.30
2023-05-10T17:28:59.451Z,15.40
2023-05-10T17:31:27.828Z,15.40
2023-05-10T17:33:54.631Z,15.40
2023-05-10T17:36:21.464Z,15.50
2023-05-10T17:38:48.268Z,15.30
2023-05-10T17:41:15.551Z,15.00
2023-05-10T17:43:42.316Z,15.00
2023-05-10T17:46:09.466Z,15.10
2023-05-10T17:48:37.106Z,14.90
2023-05-10T17:51:04.532Z,14.80
2023-05-10T17:53:31.584Z,15.00
2023-05-10T17:55:59.057Z,14.80
2023-05-10T17:58:25.904Z,14.80
2023-05-10T18:00:53.290Z,14.80
2023-05-10T18:03:20.496Z,14.80
2023-05-10T18:05:48.032Z,14.80
2023-05-10T18:08:15.561Z,14.80
2023-05-10T18:10:42.499Z,14.80
2023-05-10T18:13:09.479Z,14.80
2023-05-10T18:15:36.637Z,14.80
2023-05-10T18:18:04.815Z,14.90
2023-05-10T18:20:32.333Z,14.90
2023-05-10T18:22:59.254Z,14.80
2023-05-10T18:25:26.533Z,14.90
2023-05-10T18:27:53.911Z,14.80
2023-05-10T18:30:21.072Z,14.70
2023-05-10T18:32:48.637Z,14.60
2023-05-10T18:35:15.991Z,14.50
2023-05-10T18:37:43.176Z,14.40
2023-05-10T18:40:11.190Z,14.30
2023-05-10T18:42:38.153Z,14.30
2023-05-10T18:45:06.103Z,14.20
2023-05-10T18:47:33.230Z,14.20
2023-05-10T18:50:03.239Z,14.20
2023-05-10T18:52:30.196Z,14.20
2023-05-10T18:54:57.593Z,14.20
2023-05-10T18:57:24.372Z,14.30
2023-05-10T18:59:51.599Z,14.20
2023-05-10T19:02:18.695Z,14.30
2023-05-10T19:04:46.244Z,14.30
2023-05-10T19:07:13.165Z,14.20
2023-05-10T19:09:40.337Z,14.00
2023-05-10T19:12:07.452Z,13.90
2023-05-10T19:14:34.275Z,13.90
2023-05-10T19:17:02.218Z,13.80
2023-05-10T19:19:31.879Z,13.80
2023-05-10T19:21:58.899Z,13.90
2023-05-10T19:24:26.076Z,13.90
2023-05-10T19:26:53.369Z,14.00
2023-05-10T19:29:20.223Z,13.90
2023-05-10T19:31:47.460Z,14.00
2023-05-10T19:34:14.359Z,13.90
2023-05-10T19:36:41.263Z,13.90
2023-05-10T19:39:08.719Z,13.80
2023-05-10T19:41:35.648Z,13.70
2023-05-10T19:44:02.871Z,13.60
2023-05-10T19:46:29.947Z,13.50
2023-05-10T19:48:57.086Z,13.50
2023-05-10T19:51:24.076Z,13.50
2023-05-10T19:53:50.889Z,13.60
2023-05-10T19:56:18.721Z,13.40
2023-05-10T19:58:45.676Z,13.30
2023-05-10T20:01:13.022Z,13.20
2023-05-10T20:03:40.610Z,13.30
2023-05-10T20:06:07.819Z,13.20
2023-05-10T20:08:34.641Z,13.20
2023-05-10T20:11:03.982Z,13.10
2023-05-10T20:13:31.254Z,13.10
2023-05-10T20:15:59.669Z,13.10
2023-05-10T20:18:27.560Z,13.00
2023-05-10T20:20:55.792Z,12.90
2023-05-10T20:23:23.275Z,12.90
2023-05-10T20:25:50.350Z,12.80
2023-05-10T20:28:25.428Z,12.80
2023-05-10T20:30:53.906Z,12.80
2023-05-10T20:33:22.016Z,12.80
2023-05-10T20:35:50.510Z,12.80
2023-05-10T20:38:18.351Z,12.80
2023-05-10T20:40:45.610Z,12.80
2023-05-10T20:43:12.720Z,12.80
2023-05-10T20:45:39.591Z,12.70
2023-05-10T20:48:06.837Z,12.90
2023-05-10T20:50:33.855Z,12.90
2023-05-10T20:53:01.606Z,12.80
2023-05-10T20:55:28.612Z,12.80
2023-05-10T20:57:55.728Z,12.80
2023-05-10T21:00:23.081Z,12.80
2023-05-10T21:02:50.084Z,12.90
2023-05-10T21:05:20.388Z,12.90
2023-05-10T21:07:47.356Z,12.70
2023-05-10T21:10:14.447Z,12.60
2023-05-10T21:12:41.347Z,12.70
2023-05-10T21:15:08.927Z,12.70
2023-05-10T21:17:35.865Z,12.60
2023-05-10T21:20:02.701Z,12.70
2023-05-10T21:22:29.665Z,12.60
2023-05-10T21:24:56.430Z,12.60
2023-05-10T21:27:23.231Z,12.60
2023-05-10T21:29:50.480Z,12.80
2023-05-10T21:32:17.650Z,12.80
2023-05-10T21:34:44.605Z,12.80
2023-05-10T21:37:11.549Z,12.90
2023-05-10T21:39:38.351Z,12.70
2023-05-10T21:42:05.221Z,12.70
2023-05-10T21:44:32.223Z,12.70
2023-05-10T21:46:59.102Z,12.50
2023-05-10T21:49:26.671Z,12.50
2023-05-10T21:51:53.670Z,12.60
2023-05-10T21:54:20.501Z,12.50
2023-05-10T21:56:47.696Z,12.70
2023-05-10T21:59:14.451Z,12.50
2023-05-10T22:01:41.932Z,12.50
2023-05-10T22:04:09.169Z,12.40
2023-05-10T22:06:36.108Z,12.40
2023-05-10T22:09:02.947Z,12.50
2023-05-10T22:11:29.834Z,12.50
2023-05-10T22:13:57.139Z,12.50
2023-05-10T22:16:24.560Z,12.40
2023-05-10T22:18:51.560Z,12.50
2023-05-10T22:21:18.444Z,12.40
2023-05-10T22:23:45.347Z,12.40
2023-05-10T22:26:12.545Z,12.40
2023-05-10T22:28:39.379Z,12.40
2023-05-10T22:31:11.529Z,12.50
2023-05-10T22:33:38.875Z,12.30
2023-05-10T22:36:06.689Z,12.30
2023-05-10T22:38:33.846Z,12.30
2023-05-10T22:41:00.714Z,12.30
2023-05-10T22:43:27.591Z,12.30
2023-05-10T22:45:54.559Z,12.20
2023-05-10T22:48:22.490Z,12.40
2023-05-10T22:50:49.283Z,12.40
2023-05-10T22:53:18.555Z,12.30
2023-05-10T22:55:47.457Z,12.20
2023-05-10T22:58:14.457Z,12.10
2023-05-10T23:00:41.216Z,12.20
2023-05-10T23:03:08.169Z,12.00
2023-05-10T23:05:35.150Z,11.90
2023-05-10T23:08:02.020Z,11.90
2023-05-10T23:10:28.956Z,12.00
2023-05-10T23:12:56.386Z,11.90
2023-05-10T23:15:23.456Z,11.90
2023-05-10T23:17:50.519Z,11.80
2023-05-10T23:20:17.865Z,11.70
2023-05-10T23:22:45.266Z,11.60
2023-05-10T23:25:12.173Z,11.60
2023-05-10T23:27:39.532Z,11.50
2023-05-10T23:30:07.369Z,11.50
2023-05-10T23:32:34.565Z,11.50
2023-05-10T23:35:01.452Z,11.50
2023-05-10T23:37:28.322Z,11.50
2023-05-10T23:39:55.167Z,11.40
2023-05-10T23:42:22.580Z,11.40
2023-05-10T23:44:50.711Z,11.30
2023-05-10T23:47:18.199Z,11.30
2023-05-10T23:49:45.103Z,11.40
2023-05-10T23:52:11.954Z,11.40
2023-05-10T23:54:38.920Z,11.40
2023-05-10T23:57:06.061Z,11.50
2023-05-10T23:59:33.110Z,11.40
